sensor_id;sensor_type;location;lat;lon;timestamp;pressure;altitude;pressure_sealevel;temperature;humidity
70343;BME280;57767;42.068;24.752;2023-05-20T00:00:02;99082.00;;;15.74;60.69
70343;BME280;57767;42.068;24.752;2023-05-20T00:01:04;99085.69;;;15.73;60.81
70343;BME280;57767;42.068;24.752;2023-05-20T00:02:06;99082.47;;;15.71;61.36
70343;BME280;57767;42.068;24.752;2023-05-20T00:03:08;99082.59;;;15.65;61.09
70343;BME280;57767;42.068;24.752;2023-05-20T00:04:10;99074.03;;;15.63;61.00
70343;BME280;57767;42.068;24.752;2023-05-20T00:05:12;99079.94;;;15.65;61.15
70343;BME280;57767;42.068;24.752;2023-05-20T00:06:14;99080.88;;;15.59;61.51
70343;BME280;57767;42.068;24.752;2023-05-20T00:07:16;99082.16;;;15.56;61.49
70343;BME280;57767;42.068;24.752;2023-05-20T00:08:20;99067.31;;;15.49;61.90
70343;BME280;57767;42.068;24.752;2023-05-20T00:09:22;99078.09;;;15.54;61.71
70343;BME280;57767;42.068;24.752;2023-05-20T00:10:24;99078.34;;;15.40;61.50
70343;BME280;57767;42.068;24.752;2023-05-20T00:11:26;99070.59;;;15.39;61.75
70343;BME280;57767;42.068;24.752;2023-05-20T00:12:28;99078.22;;;15.35;61.67
70343;BME280;57767;42.068;24.752;2023-05-20T00:13:29;99081.91;;;15.34;61.87
70343;BME280;57767;42.068;24.752;2023-05-20T00:14:31;99076.38;;;15.36;62.02
70343;BME280;57767;42.068;24.752;2023-05-20T00:15:33;99080.28;;;15.33;61.55
70343;BME280;57767;42.068;24.752;2023-05-20T00:16:37;99079.38;;;15.39;62.25
70343;BME280;57767;42.068;24.752;2023-05-20T00:17:39;99080.78;;;15.42;62.18
70343;BME280;57767;42.068;24.752;2023-05-20T00:18:40;99073.25;;;15.27;61.93
70343;BME280;57767;42.068;24.752;2023-05-20T00:19:42;99078.00;;;15.25;62.72
70343;BME280;57767;42.068;24.752;2023-05-20T00:20:44;99069.81;;;15.15;62.49
70343;BME280;57767;42.068;24.752;2023-05-20T00:21:46;99073.97;;;15.11;62.79
70343;BME280;57767;42.068;24.752;2023-05-20T00:22:48;99078.38;;;15.17;62.76
70343;BME280;57767;42.068;24.752;2023-05-20T00:23:50;99079.50;;;15.21;62.21
70343;BME280;57767;42.068;24.752;2023-05-20T00:24:52;99083.19;;;15.20;62.27
70343;BME280;57767;42.068;24.752;2023-05-20T00:25:54;99075.00;;;15.22;62.17
70343;BME280;57767;42.068;24.752;2023-05-20T00:26:57;99070.47;;;15.22;62.41
70343;BME280;57767;42.068;24.752;2023-05-20T00:27:59;99079.84;;;15.25;62.39
70343;BME280;57767;42.068;24.752;2023-05-20T00:29:01;99086.78;;;15.26;62.83
70343;BME280;57767;42.068;24.752;2023-05-20T00:30:03;99079.84;;;15.25;62.72
70343;BME280;57767;42.068;24.752;2023-05-20T00:31:05;99076.38;;;15.24;62.81
70343;BME280;57767;42.068;24.752;2023-05-20T00:32:07;99078.38;;;15.17;63.06
70343;BME280;57767;42.068;24.752;2023-05-20T00:33:09;99080.31;;;15.10;62.79
70343;BME280;57767;42.068;24.752;2023-05-20T00:34:10;99069.09;;;15.08;63.47
70343;BME280;57767;42.068;24.752;2023-05-20T00:35:12;99058.94;;;14.93;63.72
70343;BME280;57767;42.068;24.752;2023-05-20T00:36:14;99078.09;;;14.95;63.98
70343;BME280;57767;42.068;24.752;2023-05-20T00:37:16;99071.44;;;14.93;63.79
70343;BME280;57767;42.068;24.752;2023-05-20T00:38:18;99067.59;;;14.89;63.96
70343;BME280;57767;42.068;24.752;2023-05-20T00:39:19;99068.19;;;14.91;64.54
70343;BME280;57767;42.068;24.752;2023-05-20T00:40:21;99071.97;;;14.95;64.04
70343;BME280;57767;42.068;24.752;2023-05-20T00:41:24;99074.91;;;14.93;64.01
70343;BME280;57767;42.068;24.752;2023-05-20T00:42:27;99059.03;;;14.87;64.22
70343;BME280;57767;42.068;24.752;2023-05-20T00:43:29;99064.47;;;14.80;64.47
70343;BME280;57767;42.068;24.752;2023-05-20T00:44:31;99066.78;;;14.88;64.60
70343;BME280;57767;42.068;24.752;2023-05-20T00:45:32;99065.53;;;14.91;64.95
70343;BME280;57767;42.068;24.752;2023-05-20T00:46:35;99060.19;;;14.79;64.58
70343;BME280;57767;42.068;24.752;2023-05-20T00:47:37;99064.25;;;14.82;64.53
70343;BME280;57767;42.068;24.752;2023-05-20T00:48:42;99059.97;;;14.81;64.22
70343;BME280;57767;42.068;24.752;2023-05-20T00:49:44;99062.16;;;14.84;64.33
70343;BME280;57767;42.068;24.752;2023-05-20T00:50:50;99061.31;;;14.72;64.45
70343;BME280;57767;42.068;24.752;2023-05-20T00:51:52;99063.16;;;14.59;64.32
70343;BME280;57767;42.068;24.752;2023-05-20T00:52:54;99057.75;;;14.66;64.81
70343;BME280;57767;42.068;24.752;2023-05-20T00:53:56;99056.50;;;14.68;64.78
70343;BME280;57767;42.068;24.752;2023-05-20T00:54:58;99061.22;;;14.66;64.20
70343;BME280;57767;42.068;24.752;2023-05-20T00:56:01;99052.88;;;14.63;64.33
70343;BME280;57767;42.068;24.752;2023-05-20T00:57:04;99054.97;;;14.73;64.76
70343;BME280;57767;42.068;24.752;2023-05-20T00:58:08;99061.81;;;14.80;64.08
70343;BME280;57767;42.068;24.752;2023-05-20T00:59:10;99064.81;;;14.84;64.09
70343;BME280;57767;42.068;24.752;2023-05-20T01:00:13;99057.66;;;14.84;64.17
70343;BME280;57767;42.068;24.752;2023-05-20T01:01:14;99065.97;;;14.88;63.83
70343;BME280;57767;42.068;24.752;2023-05-20T01:02:16;99057.53;;;14.91;63.45
70343;BME280;57767;42.068;24.752;2023-05-20T01:03:18;99058.22;;;14.86;63.14
70343;BME280;57767;42.068;24.752;2023-05-20T01:04:20;99067.25;;;14.85;63.55
70343;BME280;57767;42.068;24.752;2023-05-20T01:05:22;99060.06;;;14.86;64.02
70343;BME280;57767;42.068;24.752;2023-05-20T01:06:24;99068.63;;;14.88;63.94
70343;BME280;57767;42.068;24.752;2023-05-20T01:07:26;99065.84;;;14.83;63.58
70343;BME280;57767;42.068;24.752;2023-05-20T01:08:28;99059.97;;;14.81;64.13
70343;BME280;57767;42.068;24.752;2023-05-20T01:09:30;99052.09;;;14.86;64.27
70343;BME280;57767;42.068;24.752;2023-05-20T01:10:33;99053.50;;;14.88;63.95
70343;BME280;57767;42.068;24.752;2023-05-20T01:11:43;99053.72;;;14.87;64.32
70343;BME280;57767;42.068;24.752;2023-05-20T01:12:52;99055.94;;;14.90;64.43
70343;BME280;57767;42.068;24.752;2023-05-20T01:13:57;99048.75;;;14.90;64.31
70343;BME280;57767;42.068;24.752;2023-05-20T01:15:07;99048.41;;;14.87;64.54
70343;BME280;57767;42.068;24.752;2023-05-20T01:16:10;99047.00;;;14.84;64.45
70343;BME280;57767;42.068;24.752;2023-05-20T01:17:14;99045.16;;;14.85;64.16
70343;BME280;57767;42.068;24.752;2023-05-20T01:18:18;99051.28;;;14.85;64.20
70343;BME280;57767;42.068;24.752;2023-05-20T01:19:29;99048.84;;;14.84;64.01
70343;BME280;57767;42.068;24.752;2023-05-20T01:20:36;99038.34;;;14.77;64.23
70343;BME280;57767;42.068;24.752;2023-05-20T01:21:41;99038.72;;;14.81;64.46
70343;BME280;57767;42.068;24.752;2023-05-20T01:22:47;99052.56;;;14.83;64.51
70343;BME280;57767;42.068;24.752;2023-05-20T01:23:49;99034.88;;;14.77;64.50
70343;BME280;57767;42.068;24.752;2023-05-20T01:24:51;99043.00;;;14.82;64.92
70343;BME280;57767;42.068;24.752;2023-05-20T01:25:57;99050.97;;;14.82;64.95
70343;BME280;57767;42.068;24.752;2023-05-20T01:26:59;99051.19;;;14.80;64.90
70343;BME280;57767;42.068;24.752;2023-05-20T01:28:01;99041.59;;;14.79;64.40
70343;BME280;57767;42.068;24.752;2023-05-20T01:29:03;99049.56;;;14.79;64.74
70343;BME280;57767;42.068;24.752;2023-05-20T01:30:05;99043.09;;;14.75;64.90
70343;BME280;57767;42.068;24.752;2023-05-20T01:31:17;99049.44;;;14.74;65.01
70343;BME280;57767;42.068;24.752;2023-05-20T01:32:30;99057.63;;;14.73;65.01
70343;BME280;57767;42.068;24.752;2023-05-20T01:33:35;99053.59;;;14.70;65.19
70343;BME280;57767;42.068;24.752;2023-05-20T01:34:38;99053.84;;;14.68;65.55
70343;BME280;57767;42.068;24.752;2023-05-20T01:35:42;99053.25;;;14.66;65.49
70343;BME280;57767;42.068;24.752;2023-05-20T01:36:45;99048.84;;;14.60;65.78
70343;BME280;57767;42.068;24.752;2023-05-20T01:37:47;99046.75;;;14.62;65.54
70343;BME280;57767;42.068;24.752;2023-05-20T01:38:52;99053.94;;;14.62;65.51
70343;BME280;57767;42.068;24.752;2023-05-20T01:39:54;99052.53;;;14.59;65.36
70343;BME280;57767;42.068;24.752;2023-05-20T01:40:58;99048.25;;;14.58;66.25
70343;BME280;57767;42.068;24.752;2023-05-20T01:42:02;99043.28;;;14.50;66.33
70343;BME280;57767;42.068;24.752;2023-05-20T01:43:05;99045.13;;;14.50;66.42
70343;BME280;57767;42.068;24.752;2023-05-20T01:44:07;99048.00;;;14.48;66.96
70343;BME280;57767;42.068;24.752;2023-05-20T01:45:11;99042.59;;;14.43;67.09
70343;BME280;57767;42.068;24.752;2023-05-20T01:46:14;99044.19;;;14.44;66.99
70343;BME280;57767;42.068;24.752;2023-05-20T01:47:16;99041.19;;;14.41;66.93
70343;BME280;57767;42.068;24.752;2023-05-20T01:48:17;99043.84;;;14.41;66.84
70343;BME280;57767;42.068;24.752;2023-05-20T01:49:19;99044.25;;;14.38;67.07
70343;BME280;57767;42.068;24.752;2023-05-20T01:50:21;99040.38;;;14.40;66.79
70343;BME280;57767;42.068;24.752;2023-05-20T01:51:23;99041.84;;;14.36;66.66
70343;BME280;57767;42.068;24.752;2023-05-20T01:52:25;99045.53;;;14.35;66.66
70343;BME280;57767;42.068;24.752;2023-05-20T01:53:27;99042.28;;;14.33;67.02
70343;BME280;57767;42.068;24.752;2023-05-20T01:54:29;99039.84;;;14.31;67.08
70343;BME280;57767;42.068;24.752;2023-05-20T01:55:30;99039.50;;;14.28;66.47
70343;BME280;57767;42.068;24.752;2023-05-20T01:56:33;99029.78;;;14.22;66.72
70343;BME280;57767;42.068;24.752;2023-05-20T01:57:35;99026.53;;;14.20;66.71
70343;BME280;57767;42.068;24.752;2023-05-20T01:58:36;99037.31;;;14.25;67.28
70343;BME280;57767;42.068;24.752;2023-05-20T01:59:38;99036.72;;;14.23;66.74
70343;BME280;57767;42.068;24.752;2023-05-20T02:00:40;99034.75;;;14.18;67.12
70343;BME280;57767;42.068;24.752;2023-05-20T02:01:42;99031.03;;;14.19;66.70
70343;BME280;57767;42.068;24.752;2023-05-20T02:02:44;99032.88;;;14.19;66.85
70343;BME280;57767;42.068;24.752;2023-05-20T02:03:46;99032.09;;;14.18;67.26
70343;BME280;57767;42.068;24.752;2023-05-20T02:04:50;99029.97;;;14.09;67.55
70343;BME280;57767;42.068;24.752;2023-05-20T02:05:51;99027.91;;;14.11;67.80
70343;BME280;57767;42.068;24.752;2023-05-20T02:06:53;99027.53;;;14.07;67.60
70343;BME280;57767;42.068;24.752;2023-05-20T02:07:56;99029.16;;;14.08;67.22
70343;BME280;57767;42.068;24.752;2023-05-20T02:08:58;99041.06;;;14.06;67.04
70343;BME280;57767;42.068;24.752;2023-05-20T02:10:00;99027.44;;;14.02;67.25
70343;BME280;57767;42.068;24.752;2023-05-20T02:11:01;99032.97;;;14.01;67.59
70343;BME280;57767;42.068;24.752;2023-05-20T02:12:03;99029.50;;;14.00;67.38
70343;BME280;57767;42.068;24.752;2023-05-20T02:13:05;99021.31;;;14.02;67.26
70343;BME280;57767;42.068;24.752;2023-05-20T02:14:07;99030.09;;;14.02;67.38
70343;BME280;57767;42.068;24.752;2023-05-20T02:15:09;99021.31;;;14.02;67.26
70343;BME280;57767;42.068;24.752;2023-05-20T02:16:11;99023.16;;;14.01;67.78
70343;BME280;57767;42.068;24.752;2023-05-20T02:17:13;99026.03;;;13.99;68.22
70343;BME280;57767;42.068;24.752;2023-05-20T02:18:17;99020.13;;;13.97;68.05
70343;BME280;57767;42.068;24.752;2023-05-20T02:19:19;99023.22;;;13.94;68.23
70343;BME280;57767;42.068;24.752;2023-05-20T02:20:24;99026.91;;;13.93;68.28
70343;BME280;57767;42.068;24.752;2023-05-20T02:21:26;99017.34;;;13.92;67.76
70343;BME280;57767;42.068;24.752;2023-05-20T02:22:28;99029.56;;;13.93;68.12
70343;BME280;57767;42.068;24.752;2023-05-20T02:23:33;99027.72;;;13.94;68.01
70343;BME280;57767;42.068;24.752;2023-05-20T02:24:35;99023.00;;;13.96;67.72
70343;BME280;57767;42.068;24.752;2023-05-20T02:25:36;99021.59;;;13.93;68.01
70343;BME280;57767;42.068;24.752;2023-05-20T02:26:38;99028.31;;;13.96;67.75
70343;BME280;57767;42.068;24.752;2023-05-20T02:27:40;99020.34;;;13.96;67.25
70343;BME280;57767;42.068;24.752;2023-05-20T02:28:42;99026.56;;;13.90;67.81
70343;BME280;57767;42.068;24.752;2023-05-20T02:29:47;99019.88;;;13.87;67.84
70343;BME280;57767;42.068;24.752;2023-05-20T02:30:49;99011.91;;;13.87;67.59
70343;BME280;57767;42.068;24.752;2023-05-20T02:31:52;99015.16;;;13.89;67.70
70343;BME280;57767;42.068;24.752;2023-05-20T02:32:53;99023.69;;;13.91;67.76
70343;BME280;57767;42.068;24.752;2023-05-20T02:33:56;99018.03;;;13.88;67.72
70343;BME280;57767;42.068;24.752;2023-05-20T02:34:57;99015.16;;;13.89;67.92
70343;BME280;57767;42.068;24.752;2023-05-20T02:35:59;99012.72;;;13.88;68.01
70343;BME280;57767;42.068;24.752;2023-05-20T02:37:01;99021.84;;;13.92;68.18
70343;BME280;57767;42.068;24.752;2023-05-20T02:38:03;99014.13;;;13.90;68.11
70343;BME280;57767;42.068;24.752;2023-05-20T02:39:05;99015.00;;;13.84;68.44
70343;BME280;57767;42.068;24.752;2023-05-20T02:40:07;98997.78;;;13.75;68.64
70343;BME280;57767;42.068;24.752;2023-05-20T02:41:09;99009.31;;;13.81;68.27
70343;BME280;57767;42.068;24.752;2023-05-20T02:42:11;99010.13;;;13.81;68.54
70343;BME280;57767;42.068;24.752;2023-05-20T02:43:13;99012.22;;;13.79;68.99
70343;BME280;57767;42.068;24.752;2023-05-20T02:44:15;99006.75;;;13.74;69.42
70343;BME280;57767;42.068;24.752;2023-05-20T02:45:17;99011.69;;;13.71;69.42
70343;BME280;57767;42.068;24.752;2023-05-20T02:46:19;99005.59;;;13.70;69.24
70343;BME280;57767;42.068;24.752;2023-05-20T02:47:21;99008.03;;;13.72;69.38
70343;BME280;57767;42.068;24.752;2023-05-20T02:48:23;99012.88;;;13.75;69.25
70343;BME280;57767;42.068;24.752;2023-05-20T02:49:25;99010.44;;;13.73;68.96
70343;BME280;57767;42.068;24.752;2023-05-20T02:50:27;99012.22;;;13.79;69.12
70343;BME280;57767;42.068;24.752;2023-05-20T02:51:29;99010.38;;;13.80;69.11
70343;BME280;57767;42.068;24.752;2023-05-20T02:52:32;99016.34;;;13.75;68.73
70343;BME280;57767;42.068;24.752;2023-05-20T02:53:34;99023.06;;;13.78;69.56
70343;BME280;57767;42.068;24.752;2023-05-20T02:54:36;99019.38;;;13.79;69.62
70343;BME280;57767;42.068;24.752;2023-05-20T02:55:39;99016.13;;;13.77;69.56
70343;BME280;57767;42.068;24.752;2023-05-20T02:56:42;99011.19;;;13.80;69.47
70343;BME280;57767;42.068;24.752;2023-05-20T02:57:44;99026.97;;;13.75;69.30
70343;BME280;57767;42.068;24.752;2023-05-20T02:58:46;99017.47;;;13.68;69.30
70343;BME280;57767;42.068;24.752;2023-05-20T02:59:48;99021.97;;;13.67;69.53
70343;BME280;57767;42.068;24.752;2023-05-20T03:00:51;99022.78;;;13.68;69.46
70343;BME280;57767;42.068;24.752;2023-05-20T03:01:52;99021.97;;;13.67;69.57
70343;BME280;57767;42.068;24.752;2023-05-20T03:02:54;99032.00;;;13.65;69.91
70343;BME280;57767;42.068;24.752;2023-05-20T03:03:56;99025.66;;;13.66;69.52
70343;BME280;57767;42.068;24.752;2023-05-20T03:04:58;99025.19;;;13.69;69.67
70343;BME280;57767;42.068;24.752;2023-05-20T03:06:00;99025.66;;;13.66;69.93
70343;BME280;57767;42.068;24.752;2023-05-20T03:07:02;99019.53;;;13.66;70.20
70343;BME280;57767;42.068;24.752;2023-05-20T03:08:08;99028.97;;;13.61;70.33
70343;BME280;57767;42.068;24.752;2023-05-20T03:09:10;99033.91;;;13.58;70.50
70343;BME280;57767;42.068;24.752;2023-05-20T03:10:12;99033.91;;;13.58;71.05
70343;BME280;57767;42.068;24.752;2023-05-20T03:11:14;99031.94;;;13.53;70.88
70343;BME280;57767;42.068;24.752;2023-05-20T03:12:16;99018.31;;;13.50;70.84
70343;BME280;57767;42.068;24.752;2023-05-20T03:13:18;99034.72;;;13.58;70.85
70343;BME280;57767;42.068;24.752;2023-05-20T03:14:20;99026.16;;;13.56;70.86
70343;BME280;57767;42.068;24.752;2023-05-20T03:15:21;99033.47;;;13.61;70.65
70343;BME280;57767;42.068;24.752;2023-05-20T03:16:23;99037.91;;;13.67;70.31
70343;BME280;57767;42.068;24.752;2023-05-20T03:17:25;99035.59;;;13.71;70.54
70343;BME280;57767;42.068;24.752;2023-05-20T03:18:27;99038.03;;;13.72;70.64
70343;BME280;57767;42.068;24.752;2023-05-20T03:19:30;99038.41;;;13.76;70.97
70343;BME280;57767;42.068;24.752;2023-05-20T03:20:32;99028.00;;;13.74;70.70
70343;BME280;57767;42.068;24.752;2023-05-20T03:21:33;99031.03;;;13.78;71.25
70343;BME280;57767;42.068;24.752;2023-05-20T03:22:35;99040.94;;;13.82;71.49
70343;BME280;57767;42.068;24.752;2023-05-20T03:23:37;99038.88;;;13.84;71.65
70343;BME280;57767;42.068;24.752;2023-05-20T03:24:39;99038.22;;;13.89;71.54
70343;BME280;57767;42.068;24.752;2023-05-20T03:25:41;99037.19;;;13.90;71.27
70343;BME280;57767;42.068;24.752;2023-05-20T03:26:43;99041.91;;;13.88;71.28
70343;BME280;57767;42.068;24.752;2023-05-20T03:27:47;99048.16;;;13.93;71.00
70343;BME280;57767;42.068;24.752;2023-05-20T03:28:48;99053.22;;;13.95;70.97
70343;BME280;57767;42.068;24.752;2023-05-20T03:29:53;99057.72;;;13.94;70.36
70343;BME280;57767;42.068;24.752;2023-05-20T03:30:55;99058.09;;;13.98;69.84
70343;BME280;57767;42.068;24.752;2023-05-20T03:31:57;99065.25;;;13.97;70.33
70343;BME280;57767;42.068;24.752;2023-05-20T03:32:59;99060.84;;;13.91;70.98
70343;BME280;57767;42.068;24.752;2023-05-20T03:34:00;99064.53;;;13.90;71.19
70343;BME280;57767;42.068;24.752;2023-05-20T03:35:02;99062.31;;;13.87;71.36
70343;BME280;57767;42.068;24.752;2023-05-20T03:36:04;99072.50;;;13.90;71.19
70343;BME280;57767;42.068;24.752;2023-05-20T03:37:07;99073.53;;;13.89;70.80
70343;BME280;57767;42.068;24.752;2023-05-20T03:38:08;99070.94;;;13.83;71.16
70343;BME280;57767;42.068;24.752;2023-05-20T03:39:10;99077.16;;;13.77;71.31
70343;BME280;57767;42.068;24.752;2023-05-20T03:40:12;99074.28;;;13.78;71.05
70343;BME280;57767;42.068;24.752;2023-05-20T03:41:14;99078.25;;;13.69;71.43
70343;BME280;57767;42.068;24.752;2023-05-20T03:42:16;99079.06;;;13.70;71.95
70343;BME280;57767;42.068;24.752;2023-05-20T03:43:18;99082.91;;;13.74;72.11
70343;BME280;57767;42.068;24.752;2023-05-20T03:44:20;99085.94;;;13.77;72.21
70343;BME280;57767;42.068;24.752;2023-05-20T03:45:21;99075.75;;;13.74;71.95
70343;BME280;57767;42.068;24.752;2023-05-20T03:46:23;99082.25;;;13.78;71.86
70343;BME280;57767;42.068;24.752;2023-05-20T03:47:26;99077.59;;;13.74;71.85
70343;BME280;57767;42.068;24.752;2023-05-20T03:48:28;99089.19;;;13.79;71.75
70343;BME280;57767;42.068;24.752;2023-05-20T03:49:30;99090.34;;;13.83;71.89
70343;BME280;57767;42.068;24.752;2023-05-20T03:50:31;99092.06;;;13.78;72.07
70343;BME280;57767;42.068;24.752;2023-05-20T03:51:33;99090.22;;;13.78;72.19
70343;BME280;57767;42.068;24.752;2023-05-20T03:52:35;99086.59;;;13.73;72.50
70343;BME280;57767;42.068;24.752;2023-05-20T03:53:37;99089.41;;;13.78;72.84
70343;BME280;57767;42.068;24.752;2023-05-20T03:54:39;99083.06;;;13.79;72.70
70343;BME280;57767;42.068;24.752;2023-05-20T03:55:41;99084.22;;;13.83;72.71
70343;BME280;57767;42.068;24.752;2023-05-20T03:56:42;99090.34;;;13.83;72.63
70343;BME280;57767;42.068;24.752;2023-05-20T03:57:47;99091.16;;;13.84;73.08
70343;BME280;57767;42.068;24.752;2023-05-20T03:58:49;99089.09;;;13.86;73.06
70343;BME280;57767;42.068;24.752;2023-05-20T03:59:52;99092.41;;;13.99;73.47
70343;BME280;57767;42.068;24.752;2023-05-20T04:00:56;99091.50;;;14.06;73.66
70343;BME280;57767;42.068;24.752;2023-05-20T04:01:58;99090.00;;;14.10;73.05
70343;BME280;57767;42.068;24.752;2023-05-20T04:03:00;99083.53;;;14.06;72.92
70343;BME280;57767;42.068;24.752;2023-05-20T04:04:02;99078.78;;;14.08;72.71
70343;BME280;57767;42.068;24.752;2023-05-20T04:05:05;99078.13;;;14.12;72.93
70343;BME280;57767;42.068;24.752;2023-05-20T04:06:09;99076.72;;;14.10;73.01
70343;BME280;57767;42.068;24.752;2023-05-20T04:07:11;99074.06;;;14.10;73.19
70343;BME280;57767;42.068;24.752;2023-05-20T04:08:13;99083.22;;;14.14;73.63
70343;BME280;57767;42.068;24.752;2023-05-20T04:09:14;99080.13;;;14.17;73.56
70343;BME280;57767;42.068;24.752;2023-05-20T04:10:18;99082.31;;;14.20;72.84
70343;BME280;57767;42.068;24.752;2023-05-20T04:11:20;99083.03;;;14.27;73.02
70343;BME280;57767;42.068;24.752;2023-05-20T04:12:22;99084.34;;;14.36;73.29
70343;BME280;57767;42.068;24.752;2023-05-20T04:13:26;99074.91;;;14.40;72.92
70343;BME280;57767;42.068;24.752;2023-05-20T04:14:28;99050.13;;;14.28;73.16
70343;BME280;57767;42.068;24.752;2023-05-20T04:15:34;99082.78;;;14.58;73.50
70343;BME280;57767;42.068;24.752;2023-05-20T04:16:37;99081.91;;;14.64;73.51
70343;BME280;57767;42.068;24.752;2023-05-20T04:17:39;99080.16;;;14.70;73.35
70343;BME280;57767;42.068;24.752;2023-05-20T04:18:41;99087.09;;;14.71;72.99
70343;BME280;57767;42.068;24.752;2023-05-20T04:19:48;99077.63;;;14.75;72.52
70343;BME280;57767;42.068;24.752;2023-05-20T04:20:53;99086.88;;;14.84;73.50
70343;BME280;57767;42.068;24.752;2023-05-20T04:21:56;99086.34;;;14.94;72.61
70343;BME280;57767;42.068;24.752;2023-05-20T04:22:58;99067.81;;;14.99;73.06
70343;BME280;57767;42.068;24.752;2023-05-20T04:24:00;99079.16;;;15.18;71.98
70343;BME280;57767;42.068;24.752;2023-05-20T04:25:02;99086.56;;;15.27;71.30
70343;BME280;57767;42.068;24.752;2023-05-20T04:26:05;99080.88;;;15.35;71.17
70343;BME280;57767;42.068;24.752;2023-05-20T04:27:07;99075.00;;;15.45;72.43
70343;BME280;57767;42.068;24.752;2023-05-20T04:28:09;99084.34;;;15.59;74.08
70343;BME280;57767;42.068;24.752;2023-05-20T04:29:14;99089.19;;;15.74;74.32
70343;BME280;57767;42.068;24.752;2023-05-20T04:30:16;99086.38;;;15.92;74.54
70343;BME280;57767;42.068;24.752;2023-05-20T04:31:19;99082.91;;;16.08;72.76
70343;BME280;57767;42.068;24.752;2023-05-20T04:32:21;99084.38;;;16.28;73.56
70343;BME280;57767;42.068;24.752;2023-05-20T04:33:24;99085.75;;;16.47;71.86
70343;BME280;57767;42.068;24.752;2023-05-20T04:34:29;99084.53;;;16.66;71.26
70343;BME280;57767;42.068;24.752;2023-05-20T04:35:35;99089.78;;;16.95;69.42
70343;BME280;57767;42.068;24.752;2023-05-20T04:36:38;99086.38;;;17.16;67.77
70343;BME280;57767;42.068;24.752;2023-05-20T04:37:40;99082.88;;;17.32;67.04
70343;BME280;57767;42.068;24.752;2023-05-20T04:38:48;99085.75;;;17.47;66.88
70343;BME280;57767;42.068;24.752;2023-05-20T04:39:50;99086.53;;;17.65;66.13
70343;BME280;57767;42.068;24.752;2023-05-20T04:40:53;99080.81;;;17.78;64.79
70343;BME280;57767;42.068;24.752;2023-05-20T04:41:54;99090.63;;;17.94;64.52
70343;BME280;57767;42.068;24.752;2023-05-20T04:42:58;99085.72;;;18.08;63.95
70343;BME280;57767;42.068;24.752;2023-05-20T04:44:00;99085.88;;;18.23;64.14
70343;BME280;57767;42.068;24.752;2023-05-20T04:45:02;99089.75;;;18.37;62.84
70343;BME280;57767;42.068;24.752;2023-05-20T04:46:06;99080.56;;;18.55;62.16
70343;BME280;57767;42.068;24.752;2023-05-20T04:47:08;99086.09;;;18.70;61.85
70343;BME280;57767;42.068;24.752;2023-05-20T04:48:10;99086.75;;;18.87;61.78
70343;BME280;57767;42.068;24.752;2023-05-20T04:49:12;99089.06;;;19.11;60.63
70343;BME280;57767;42.068;24.752;2023-05-20T04:50:13;99092.94;;;19.30;59.48
70343;BME280;57767;42.068;24.752;2023-05-20T04:51:16;99089.25;;;19.41;57.13
70343;BME280;57767;42.068;24.752;2023-05-20T04:52:18;99090.69;;;19.49;55.20
70343;BME280;57767;42.068;24.752;2023-05-20T04:53:20;99092.84;;;19.57;56.43
70343;BME280;57767;42.068;24.752;2023-05-20T04:54:25;99096.88;;;19.64;57.39
70343;BME280;57767;42.068;24.752;2023-05-20T04:55:26;99097.47;;;19.77;57.32
70343;BME280;57767;42.068;24.752;2023-05-20T04:56:29;99097.50;;;19.82;55.65
70343;BME280;57767;42.068;24.752;2023-05-20T04:57:30;99104.53;;;19.93;58.22
70343;BME280;57767;42.068;24.752;2023-05-20T04:58:35;99097.34;;;20.09;57.12
70343;BME280;57767;42.068;24.752;2023-05-20T04:59:38;99094.72;;;20.24;56.42
70343;BME280;57767;42.068;24.752;2023-05-20T05:00:41;99095.50;;;20.29;54.85
70343;BME280;57767;42.068;24.752;2023-05-20T05:01:43;99091.81;;;20.41;55.68
70343;BME280;57767;42.068;24.752;2023-05-20T05:02:45;99096.13;;;20.57;55.67
70343;BME280;57767;42.068;24.752;2023-05-20T05:03:48;99104.47;;;20.76;55.69
70343;BME280;57767;42.068;24.752;2023-05-20T05:04:49;99096.66;;;20.94;54.29
70343;BME280;57767;42.068;24.752;2023-05-20T05:05:55;99100.69;;;21.12;53.98
70343;BME280;57767;42.068;24.752;2023-05-20T05:06:57;99100.16;;;21.30;53.43
70343;BME280;57767;42.068;24.752;2023-05-20T05:07:59;99096.34;;;21.41;50.78
70343;BME280;57767;42.068;24.752;2023-05-20T05:09:01;99097.16;;;21.42;50.60
70343;BME280;57767;42.068;24.752;2023-05-20T05:10:03;99099.34;;;21.30;49.92
70343;BME280;57767;42.068;24.752;2023-05-20T05:11:05;99101.47;;;21.18;49.19
70343;BME280;57767;42.068;24.752;2023-05-20T05:12:07;99095.59;;;20.95;49.43
70343;BME280;57767;42.068;24.752;2023-05-20T05:13:09;99092.94;;;21.00;51.13
70343;BME280;57767;42.068;24.752;2023-05-20T05:14:11;99071.44;;;21.00;52.18
70343;BME280;57767;42.068;24.752;2023-05-20T05:15:12;99095.31;;;21.37;52.38
70343;BME280;57767;42.068;24.752;2023-05-20T05:16:14;99088.53;;;21.55;50.43
70343;BME280;57767;42.068;24.752;2023-05-20T05:17:16;99087.41;;;21.66;49.57
70343;BME280;57767;42.068;24.752;2023-05-20T05:18:18;99096.53;;;21.75;50.62
70343;BME280;57767;42.068;24.752;2023-05-20T05:19:19;99091.06;;;21.96;50.11
70343;BME280;57767;42.068;24.752;2023-05-20T05:20:22;99099.91;;;22.11;49.55
70343;BME280;57767;42.068;24.752;2023-05-20T05:21:23;99092.56;;;22.22;48.20
70343;BME280;57767;42.068;24.752;2023-05-20T05:22:25;99096.00;;;22.33;47.67
70343;BME280;57767;42.068;24.752;2023-05-20T05:23:27;99092.94;;;22.49;46.97
70343;BME280;57767;42.068;24.752;2023-05-20T05:24:29;99093.56;;;22.75;47.48
70343;BME280;57767;42.068;24.752;2023-05-20T05:25:31;99095.88;;;22.92;47.21
70343;BME280;57767;42.068;24.752;2023-05-20T05:26:33;99093.66;;;22.99;46.89